Cozahome, Arkansas
Current Conditions -  °F | °C
As of 12:15 AM on Sunday 26 Oct 2014 (Local Time) from KFLP Reporting Station
Clear Clear  
Wind Chill: 59°   Ceiling: Unl
Heat Index: 59°   Visibility: 1mi
Dew Point: 54°   Wind: 0mph
Humidity: 82%   Direction: NA
Pressure: 30.01"   Gusts: NA
Location:  35.9848°N, 92.4926°W
Report Text: KFLP 260515Z AUTO 00000KT 1SM CLR 15/12 A3001 RMK AO1
Loading
Personal Weather Stations






























Interactive Weather Map
Tropical Storm Tracking
New forecast layout! Learn more

10-Day Weather Forecast

Advertisements
Track Severe Weather on mobile